sensor_id;sensor_type;location;lat;lon;timestamp;P1;durP1;ratioP1;P2;durP2;ratioP2
7027;SDS011;3555;53.248;10.336;2022-12-07T00:00:53;19.43;;;12.43;;
7027;SDS011;3555;53.248;10.336;2022-12-07T00:03:20;18.73;;;12.03;;
7027;SDS011;3555;53.248;10.336;2022-12-07T00:05:46;20.10;;;11.93;;
7027;SDS011;3555;53.248;10.336;2022-12-07T00:08:15;19.60;;;12.27;;
7027;SDS011;3555;53.248;10.336;2022-12-07T00:10:42;19.03;;;12.30;;
7027;SDS011;3555;53.248;10.336;2022-12-07T00:13:08;17.37;;;11.57;;
7027;SDS011;3555;53.248;10.336;2022-12-07T00:15:35;18.03;;;12.30;;
7027;SDS011;3555;53.248;10.336;2022-12-07T00:18:02;17.97;;;11.97;;
7027;SDS011;3555;53.248;10.336;2022-12-07T00:20:29;18.27;;;11.83;;
7027;SDS011;3555;53.248;10.336;2022-12-07T00:22:56;17.77;;;11.37;;
7027;SDS011;3555;53.248;10.336;2022-12-07T00:25:25;15.00;;;10.27;;
7027;SDS011;3555;53.248;10.336;2022-12-07T00:27:52;19.30;;;12.27;;
7027;SDS011;3555;53.248;10.336;2022-12-07T00:30:20;19.37;;;11.90;;
7027;SDS011;3555;53.248;10.336;2022-12-07T00:32:47;18.47;;;12.40;;
7027;SDS011;3555;53.248;10.336;2022-12-07T00:35:14;18.93;;;12.50;;
7027;SDS011;3555;53.248;10.336;2022-12-07T00:37:41;20.90;;;12.20;;
7027;SDS011;3555;53.248;10.336;2022-12-07T00:40:08;18.57;;;11.87;;
7027;SDS011;3555;53.248;10.336;2022-12-07T00:42:37;19.20;;;12.67;;
7027;SDS011;3555;53.248;10.336;2022-12-07T00:45:05;25.77;;;12.83;;
7027;SDS011;3555;53.248;10.336;2022-12-07T00:47:32;27.20;;;14.17;;
7027;SDS011;3555;53.248;10.336;2022-12-07T00:49:59;21.10;;;13.40;;
7027;SDS011;3555;53.248;10.336;2022-12-07T00:52:26;22.33;;;13.07;;
7027;SDS011;3555;53.248;10.336;2022-12-07T00:54:53;23.03;;;12.67;;
7027;SDS011;3555;53.248;10.336;2022-12-07T00:57:20;24.10;;;13.13;;
7027;SDS011;3555;53.248;10.336;2022-12-07T00:59:49;22.13;;;13.03;;
7027;SDS011;3555;53.248;10.336;2022-12-07T01:02:20;19.13;;;12.10;;
7027;SDS011;3555;53.248;10.336;2022-12-07T01:04:47;17.90;;;11.13;;
7027;SDS011;3555;53.248;10.336;2022-12-07T01:07:14;19.13;;;11.27;;
7027;SDS011;3555;53.248;10.336;2022-12-07T01:09:41;20.77;;;11.67;;
7027;SDS011;3555;53.248;10.336;2022-12-07T01:12:08;23.80;;;12.53;;
7027;SDS011;3555;53.248;10.336;2022-12-07T01:14:35;23.17;;;12.53;;
7027;SDS011;3555;53.248;10.336;2022-12-07T01:17:03;20.80;;;12.10;;
7027;SDS011;3555;53.248;10.336;2022-12-07T01:19:30;17.53;;;11.87;;
7027;SDS011;3555;53.248;10.336;2022-12-07T01:21:57;20.10;;;12.37;;
7027;SDS011;3555;53.248;10.336;2022-12-07T01:24:23;20.37;;;12.63;;
7027;SDS011;3555;53.248;10.336;2022-12-07T01:26:51;22.30;;;12.40;;
7027;SDS011;3555;53.248;10.336;2022-12-07T01:29:17;19.33;;;12.23;;
7027;SDS011;3555;53.248;10.336;2022-12-07T01:31:44;18.07;;;11.77;;
7027;SDS011;3555;53.248;10.336;2022-12-07T01:34:15;20.07;;;12.17;;
7027;SDS011;3555;53.248;10.336;2022-12-07T01:36:42;17.37;;;11.00;;
7027;SDS011;3555;53.248;10.336;2022-12-07T01:39:09;19.83;;;12.43;;
7027;SDS011;3555;53.248;10.336;2022-12-07T01:41:37;20.50;;;12.77;;
7027;SDS011;3555;53.248;10.336;2022-12-07T01:44:19;20.00;;;12.63;;
7027;SDS011;3555;53.248;10.336;2022-12-07T01:46:47;20.53;;;13.07;;
7027;SDS011;3555;53.248;10.336;2022-12-07T01:49:18;20.57;;;12.67;;
7027;SDS011;3555;53.248;10.336;2022-12-07T01:51:57;22.87;;;12.70;;
7027;SDS011;3555;53.248;10.336;2022-12-07T01:54:30;21.47;;;12.87;;
7027;SDS011;3555;53.248;10.336;2022-12-07T01:56:58;19.83;;;12.07;;
7027;SDS011;3555;53.248;10.336;2022-12-07T01:59:26;18.60;;;12.07;;
7027;SDS011;3555;53.248;10.336;2022-12-07T02:01:53;19.90;;;11.63;;
7027;SDS011;3555;53.248;10.336;2022-12-07T02:04:23;22.10;;;12.77;;
7027;SDS011;3555;53.248;10.336;2022-12-07T02:06:50;18.60;;;11.17;;
7027;SDS011;3555;53.248;10.336;2022-12-07T02:09:18;18.97;;;12.07;;
7027;SDS011;3555;53.248;10.336;2022-12-07T02:11:45;18.37;;;12.00;;
7027;SDS011;3555;53.248;10.336;2022-12-07T02:14:12;20.77;;;11.83;;
7027;SDS011;3555;53.248;10.336;2022-12-07T02:16:43;20.13;;;11.53;;
7027;SDS011;3555;53.248;10.336;2022-12-07T02:19:38;20.90;;;10.80;;
7027;SDS011;3555;53.248;10.336;2022-12-07T02:22:32;19.77;;;10.70;;
7027;SDS011;3555;53.248;10.336;2022-12-07T02:25:22;14.27;;;9.40;;
7027;SDS011;3555;53.248;10.336;2022-12-07T02:28:03;19.47;;;10.37;;
7027;SDS011;3555;53.248;10.336;2022-12-07T02:30:34;13.60;;;9.50;;
7027;SDS011;3555;53.248;10.336;2022-12-07T02:33:07;16.30;;;9.63;;
7027;SDS011;3555;53.248;10.336;2022-12-07T02:35:40;15.00;;;9.10;;
7027;SDS011;3555;53.248;10.336;2022-12-07T02:38:11;15.40;;;9.77;;
7027;SDS011;3555;53.248;10.336;2022-12-07T02:40:43;15.13;;;9.27;;
7027;SDS011;3555;53.248;10.336;2022-12-07T02:43:14;14.13;;;9.33;;
7027;SDS011;3555;53.248;10.336;2022-12-07T02:45:47;13.57;;;8.57;;
7027;SDS011;3555;53.248;10.336;2022-12-07T02:48:16;13.53;;;8.77;;
7027;SDS011;3555;53.248;10.336;2022-12-07T02:50:44;13.70;;;8.53;;
7027;SDS011;3555;53.248;10.336;2022-12-07T02:55:57;12.33;;;8.10;;
7027;SDS011;3555;53.248;10.336;2022-12-07T02:58:28;15.70;;;8.07;;
7027;SDS011;3555;53.248;10.336;2022-12-07T03:01:05;11.40;;;7.30;;
7027;SDS011;3555;53.248;10.336;2022-12-07T03:03:41;14.77;;;8.37;;
7027;SDS011;3555;53.248;10.336;2022-12-07T03:06:14;11.10;;;7.33;;
7027;SDS011;3555;53.248;10.336;2022-12-07T03:08:49;13.37;;;6.83;;
7027;SDS011;3555;53.248;10.336;2022-12-07T03:11:28;8.93;;;6.37;;
7027;SDS011;3555;53.248;10.336;2022-12-07T03:14:04;9.53;;;6.67;;
7027;SDS011;3555;53.248;10.336;2022-12-07T03:16:40;11.97;;;6.70;;
7027;SDS011;3555;53.248;10.336;2022-12-07T03:19:15;10.77;;;5.60;;
7027;SDS011;3555;53.248;10.336;2022-12-07T03:21:44;12.17;;;7.50;;
7027;SDS011;3555;53.248;10.336;2022-12-07T03:24:17;9.23;;;5.83;;
7027;SDS011;3555;53.248;10.336;2022-12-07T03:26:47;10.60;;;5.47;;
7027;SDS011;3555;53.248;10.336;2022-12-07T03:29:19;9.50;;;5.40;;
7027;SDS011;3555;53.248;10.336;2022-12-07T03:31:51;9.37;;;5.57;;
7027;SDS011;3555;53.248;10.336;2022-12-07T03:34:26;10.87;;;5.90;;
7027;SDS011;3555;53.248;10.336;2022-12-07T03:36:57;11.67;;;5.80;;
7027;SDS011;3555;53.248;10.336;2022-12-07T03:39:29;10.63;;;5.40;;
7027;SDS011;3555;53.248;10.336;2022-12-07T03:42:00;8.33;;;5.37;;
7027;SDS011;3555;53.248;10.336;2022-12-07T03:44:29;12.77;;;6.40;;
7027;SDS011;3555;53.248;10.336;2022-12-07T03:47:00;7.80;;;4.40;;
7027;SDS011;3555;53.248;10.336;2022-12-07T03:49:30;6.47;;;4.50;;
7027;SDS011;3555;53.248;10.336;2022-12-07T03:52:06;9.00;;;4.83;;
7027;SDS011;3555;53.248;10.336;2022-12-07T03:54:37;7.93;;;5.80;;
7027;SDS011;3555;53.248;10.336;2022-12-07T03:57:08;7.30;;;4.40;;
7027;SDS011;3555;53.248;10.336;2022-12-07T03:59:36;10.80;;;4.97;;
7027;SDS011;3555;53.248;10.336;2022-12-07T04:02:06;7.13;;;4.37;;
7027;SDS011;3555;53.248;10.336;2022-12-07T04:04:34;8.73;;;4.00;;
7027;SDS011;3555;53.248;10.336;2022-12-07T04:07:01;8.57;;;4.27;;
7027;SDS011;3555;53.248;10.336;2022-12-07T04:09:28;6.33;;;3.90;;
7027;SDS011;3555;53.248;10.336;2022-12-07T04:11:55;7.53;;;4.00;;
7027;SDS011;3555;53.248;10.336;2022-12-07T04:14:22;7.23;;;4.37;;
7027;SDS011;3555;53.248;10.336;2022-12-07T04:16:51;7.27;;;4.03;;
7027;SDS011;3555;53.248;10.336;2022-12-07T04:19:24;10.60;;;4.87;;
7027;SDS011;3555;53.248;10.336;2022-12-07T04:21:52;5.80;;;4.13;;
7027;SDS011;3555;53.248;10.336;2022-12-07T04:24:19;7.57;;;4.27;;
7027;SDS011;3555;53.248;10.336;2022-12-07T04:26:47;7.60;;;3.77;;
7027;SDS011;3555;53.248;10.336;2022-12-07T04:29:14;6.73;;;4.03;;
7027;SDS011;3555;53.248;10.336;2022-12-07T04:31:42;6.73;;;4.37;;
7027;SDS011;3555;53.248;10.336;2022-12-07T04:34:10;8.00;;;4.03;;
7027;SDS011;3555;53.248;10.336;2022-12-07T04:36:39;12.27;;;4.03;;
7027;SDS011;3555;53.248;10.336;2022-12-07T04:39:07;8.17;;;4.07;;
7027;SDS011;3555;53.248;10.336;2022-12-07T04:41:35;6.40;;;3.57;;
7027;SDS011;3555;53.248;10.336;2022-12-07T04:44:03;5.47;;;3.63;;
7027;SDS011;3555;53.248;10.336;2022-12-07T04:46:32;7.70;;;3.97;;
7027;SDS011;3555;53.248;10.336;2022-12-07T04:48:59;4.43;;;3.37;;
7027;SDS011;3555;53.248;10.336;2022-12-07T04:51:26;6.50;;;3.60;;
7027;SDS011;3555;53.248;10.336;2022-12-07T04:53:56;6.30;;;3.10;;
7027;SDS011;3555;53.248;10.336;2022-12-07T04:56:23;5.17;;;2.70;;
7027;SDS011;3555;53.248;10.336;2022-12-07T04:58:51;4.83;;;2.93;;
7027;SDS011;3555;53.248;10.336;2022-12-07T05:01:20;6.00;;;2.90;;
7027;SDS011;3555;53.248;10.336;2022-12-07T05:03:48;6.77;;;3.13;;
7027;SDS011;3555;53.248;10.336;2022-12-07T05:06:15;6.70;;;3.30;;
7027;SDS011;3555;53.248;10.336;2022-12-07T05:08:42;5.87;;;2.97;;
7027;SDS011;3555;53.248;10.336;2022-12-07T05:11:11;4.50;;;3.03;;
7027;SDS011;3555;53.248;10.336;2022-12-07T05:13:59;3.57;;;2.93;;
7027;SDS011;3555;53.248;10.336;2022-12-07T05:16:26;6.17;;;3.13;;
7027;SDS011;3555;53.248;10.336;2022-12-07T05:18:53;5.43;;;2.60;;
7027;SDS011;3555;53.248;10.336;2022-12-07T05:21:20;5.70;;;2.70;;
7027;SDS011;3555;53.248;10.336;2022-12-07T05:23:47;5.50;;;2.67;;
7027;SDS011;3555;53.248;10.336;2022-12-07T05:26:16;5.37;;;3.30;;
7027;SDS011;3555;53.248;10.336;2022-12-07T05:28:43;4.00;;;2.40;;
7027;SDS011;3555;53.248;10.336;2022-12-07T05:31:10;7.27;;;2.93;;
7027;SDS011;3555;53.248;10.336;2022-12-07T05:33:36;5.17;;;2.80;;
7027;SDS011;3555;53.248;10.336;2022-12-07T05:36:03;3.63;;;2.53;;
7027;SDS011;3555;53.248;10.336;2022-12-07T05:38:32;5.70;;;2.20;;
7027;SDS011;3555;53.248;10.336;2022-12-07T05:41:00;5.13;;;3.07;;
7027;SDS011;3555;53.248;10.336;2022-12-07T05:43:29;4.17;;;2.23;;
7027;SDS011;3555;53.248;10.336;2022-12-07T05:45:56;4.93;;;2.53;;
7027;SDS011;3555;53.248;10.336;2022-12-07T05:48:23;4.20;;;2.60;;
7027;SDS011;3555;53.248;10.336;2022-12-07T05:50:51;3.53;;;2.30;;
7027;SDS011;3555;53.248;10.336;2022-12-07T05:53:18;4.10;;;2.53;;
7027;SDS011;3555;53.248;10.336;2022-12-07T05:55:45;5.27;;;2.40;;
7027;SDS011;3555;53.248;10.336;2022-12-07T05:58:12;4.00;;;2.33;;
7027;SDS011;3555;53.248;10.336;2022-12-07T06:00:58;2.63;;;2.20;;
7027;SDS011;3555;53.248;10.336;2022-12-07T06:03:25;5.30;;;2.40;;
7027;SDS011;3555;53.248;10.336;2022-12-07T06:05:52;4.10;;;2.57;;
7027;SDS011;3555;53.248;10.336;2022-12-07T06:08:19;4.23;;;2.17;;
7027;SDS011;3555;53.248;10.336;2022-12-07T06:10:46;4.40;;;2.40;;
7027;SDS011;3555;53.248;10.336;2022-12-07T06:13:35;3.07;;;2.10;;
7027;SDS011;3555;53.248;10.336;2022-12-07T06:16:03;4.37;;;2.30;;
7027;SDS011;3555;53.248;10.336;2022-12-07T06:18:30;4.57;;;2.70;;
7027;SDS011;3555;53.248;10.336;2022-12-07T06:20:57;5.00;;;2.30;;
7027;SDS011;3555;53.248;10.336;2022-12-07T06:23:24;5.03;;;2.30;;
7027;SDS011;3555;53.248;10.336;2022-12-07T06:25:51;3.50;;;2.33;;
7027;SDS011;3555;53.248;10.336;2022-12-07T06:28:18;3.37;;;2.30;;
7027;SDS011;3555;53.248;10.336;2022-12-07T06:30:45;3.20;;;2.33;;
7027;SDS011;3555;53.248;10.336;2022-12-07T06:33:14;5.67;;;2.57;;
7027;SDS011;3555;53.248;10.336;2022-12-07T06:35:40;5.50;;;2.60;;
7027;SDS011;3555;53.248;10.336;2022-12-07T06:38:07;4.33;;;2.40;;
7027;SDS011;3555;53.248;10.336;2022-12-07T06:40:34;3.40;;;2.27;;
7027;SDS011;3555;53.248;10.336;2022-12-07T06:43:01;6.80;;;2.50;;
7027;SDS011;3555;53.248;10.336;2022-12-07T06:45:28;3.27;;;2.33;;
7027;SDS011;3555;53.248;10.336;2022-12-07T06:47:55;6.50;;;2.70;;
7027;SDS011;3555;53.248;10.336;2022-12-07T06:50:23;7.30;;;2.33;;
7027;SDS011;3555;53.248;10.336;2022-12-07T06:52:51;5.40;;;2.40;;
7027;SDS011;3555;53.248;10.336;2022-12-07T06:55:18;5.73;;;2.90;;
7027;SDS011;3555;53.248;10.336;2022-12-07T06:57:45;8.57;;;2.80;;
7027;SDS011;3555;53.248;10.336;2022-12-07T07:00:12;5.77;;;2.73;;
7027;SDS011;3555;53.248;10.336;2022-12-07T07:02:41;5.03;;;2.37;;
7027;SDS011;3555;53.248;10.336;2022-12-07T07:05:08;5.63;;;2.83;;
7027;SDS011;3555;53.248;10.336;2022-12-07T07:07:36;6.27;;;2.83;;
7027;SDS011;3555;53.248;10.336;2022-12-07T07:10:04;4.70;;;2.67;;
7027;SDS011;3555;53.248;10.336;2022-12-07T07:12:31;8.33;;;2.40;;
7027;SDS011;3555;53.248;10.336;2022-12-07T07:14:58;3.77;;;2.10;;
7027;SDS011;3555;53.248;10.336;2022-12-07T07:17:25;5.67;;;2.37;;
7027;SDS011;3555;53.248;10.336;2022-12-07T07:19:52;4.20;;;2.37;;
7027;SDS011;3555;53.248;10.336;2022-12-07T07:22:19;3.83;;;2.33;;
7027;SDS011;3555;53.248;10.336;2022-12-07T07:24:47;3.87;;;2.43;;
7027;SDS011;3555;53.248;10.336;2022-12-07T07:27:14;2.80;;;2.40;;
7027;SDS011;3555;53.248;10.336;2022-12-07T07:29:41;3.53;;;1.90;;
7027;SDS011;3555;53.248;10.336;2022-12-07T07:32:08;9.57;;;2.13;;
7027;SDS011;3555;53.248;10.336;2022-12-07T07:34:35;2.73;;;2.00;;
7027;SDS011;3555;53.248;10.336;2022-12-07T07:37:02;7.33;;;2.40;;
7027;SDS011;3555;53.248;10.336;2022-12-07T07:39:29;4.27;;;2.57;;
7027;SDS011;3555;53.248;10.336;2022-12-07T07:41:57;5.60;;;3.13;;
7027;SDS011;3555;53.248;10.336;2022-12-07T07:44:24;4.03;;;2.43;;
7027;SDS011;3555;53.248;10.336;2022-12-07T07:46:51;4.00;;;2.30;;
7027;SDS011;3555;53.248;10.336;2022-12-07T07:49:18;7.33;;;2.50;;
7027;SDS011;3555;53.248;10.336;2022-12-07T07:51:45;5.00;;;2.83;;
7027;SDS011;3555;53.248;10.336;2022-12-07T07:54:12;4.67;;;2.67;;
7027;SDS011;3555;53.248;10.336;2022-12-07T07:56:38;4.87;;;2.90;;
7027;SDS011;3555;53.248;10.336;2022-12-07T07:59:07;4.37;;;2.47;;
7027;SDS011;3555;53.248;10.336;2022-12-07T08:01:34;6.87;;;3.07;;
7027;SDS011;3555;53.248;10.336;2022-12-07T08:04:00;4.40;;;2.73;;
7027;SDS011;3555;53.248;10.336;2022-12-07T08:06:27;6.33;;;2.87;;
7027;SDS011;3555;53.248;10.336;2022-12-07T08:08:54;3.20;;;2.50;;
7027;SDS011;3555;53.248;10.336;2022-12-07T08:11:23;7.57;;;2.67;;
7027;SDS011;3555;53.248;10.336;2022-12-07T08:13:50;3.03;;;2.20;;
7027;SDS011;3555;53.248;10.336;2022-12-07T08:16:18;3.40;;;2.43;;
7027;SDS011;3555;53.248;10.336;2022-12-07T08:18:45;5.97;;;2.53;;
7027;SDS011;3555;53.248;10.336;2022-12-07T08:21:12;4.90;;;2.77;;
7027;SDS011;3555;53.248;10.336;2022-12-07T08:23:40;5.63;;;2.47;;
7027;SDS011;3555;53.248;10.336;2022-12-07T08:26:08;8.87;;;2.87;;
7027;SDS011;3555;53.248;10.336;2022-12-07T08:28:36;3.93;;;2.90;;
7027;SDS011;3555;53.248;10.336;2022-12-07T08:31:04;4.13;;;2.50;;
7027;SDS011;3555;53.248;10.336;2022-12-07T08:33:35;7.27;;;3.00;;
7027;SDS011;3555;53.248;10.336;2022-12-07T08:36:02;6.00;;;2.43;;
7027;SDS011;3555;53.248;10.336;2022-12-07T08:38:30;4.57;;;2.40;;
7027;SDS011;3555;53.248;10.336;2022-12-07T08:40:58;4.50;;;2.60;;
7027;SDS011;3555;53.248;10.336;2022-12-07T08:43:25;4.00;;;2.50;;
7027;SDS011;3555;53.248;10.336;2022-12-07T08:45:54;6.87;;;2.47;;
7027;SDS011;3555;53.248;10.336;2022-12-07T08:48:28;4.17;;;2.43;;
7027;SDS011;3555;53.248;10.336;2022-12-07T08:50:57;3.23;;;2.37;;
7027;SDS011;3555;53.248;10.336;2022-12-07T08:53:24;2.90;;;2.37;;
7027;SDS011;3555;53.248;10.336;2022-12-07T08:55:51;4.47;;;2.57;;
7027;SDS011;3555;53.248;10.336;2022-12-07T08:58:18;5.63;;;2.17;;
7027;SDS011;3555;53.248;10.336;2022-12-07T09:00:45;3.20;;;2.30;;
7027;SDS011;3555;53.248;10.336;2022-12-07T09:03:12;4.90;;;2.10;;
7027;SDS011;3555;53.248;10.336;2022-12-07T09:05:39;6.10;;;3.07;;
7027;SDS011;3555;53.248;10.336;2022-12-07T09:08:07;3.60;;;2.20;;
7027;SDS011;3555;53.248;10.336;2022-12-07T09:10:34;4.73;;;2.13;;
7027;SDS011;3555;53.248;10.336;2022-12-07T09:13:01;3.17;;;2.20;;
7027;SDS011;3555;53.248;10.336;2022-12-07T09:15:28;3.87;;;2.00;;
7027;SDS011;3555;53.248;10.336;2022-12-07T09:17:56;3.07;;;1.83;;
7027;SDS011;3555;53.248;10.336;2022-12-07T09:20:23;2.27;;;1.83;;
7027;SDS011;3555;53.248;10.336;2022-12-07T09:22:50;3.40;;;1.90;;
7027;SDS011;3555;53.248;10.336;2022-12-07T09:25:18;4.30;;;2.20;;
7027;SDS011;3555;53.248;10.336;2022-12-07T09:27:45;5.83;;;2.33;;
7027;SDS011;3555;53.248;10.336;2022-12-07T09:30:12;8.13;;;2.30;;
7027;SDS011;3555;53.248;10.336;2022-12-07T09:32:39;5.63;;;2.07;;
7027;SDS011;3555;53.248;10.336;2022-12-07T09:35:06;4.40;;;2.00;;
7027;SDS011;3555;53.248;10.336;2022-12-07T09:37:34;5.90;;;2.57;;
7027;SDS011;3555;53.248;10.336;2022-12-07T09:40:01;6.00;;;2.00;;
7027;SDS011;3555;53.248;10.336;2022-12-07T09:42:31;5.60;;;2.10;;
7027;SDS011;3555;53.248;10.336;2022-12-07T09:45:00;3.87;;;1.90;;
7027;SDS011;3555;53.248;10.336;2022-12-07T09:47:28;3.53;;;1.93;;
7027;SDS011;3555;53.248;10.336;2022-12-07T09:49:57;3.53;;;1.97;;
7027;SDS011;3555;53.248;10.336;2022-12-07T09:52:30;3.13;;;1.80;;
7027;SDS011;3555;53.248;10.336;2022-12-07T09:54:57;4.43;;;2.00;;
7027;SDS011;3555;53.248;10.336;2022-12-07T09:57:27;4.47;;;1.87;;
7027;SDS011;3555;53.248;10.336;2022-12-07T10:00:00;4.50;;;1.90;;
7027;SDS011;3555;53.248;10.336;2022-12-07T10:02:34;6.07;;;2.10;;
7027;SDS011;3555;53.248;10.336;2022-12-07T10:05:03;5.73;;;1.90;;
7027;SDS011;3555;53.248;10.336;2022-12-07T10:07:32;2.93;;;2.00;;
7027;SDS011;3555;53.248;10.336;2022-12-07T10:09:59;3.40;;;2.07;;
7027;SDS011;3555;53.248;10.336;2022-12-07T10:12:27;4.10;;;2.30;;
7027;SDS011;3555;53.248;10.336;2022-12-07T10:14:57;4.33;;;2.43;;
7027;SDS011;3555;53.248;10.336;2022-12-07T10:17:35;2.80;;;1.77;;
7027;SDS011;3555;53.248;10.336;2022-12-07T10:23:01;3.63;;;1.80;;
7027;SDS011;3555;53.248;10.336;2022-12-07T10:25:30;6.50;;;2.63;;
7027;SDS011;3555;53.248;10.336;2022-12-07T10:28:09;9.00;;;3.03;;
7027;SDS011;3555;53.248;10.336;2022-12-07T10:30:46;4.57;;;1.83;;
7027;SDS011;3555;53.248;10.336;2022-12-07T10:33:22;4.83;;;1.87;;
7027;SDS011;3555;53.248;10.336;2022-12-07T10:35:58;2.63;;;1.40;;
7027;SDS011;3555;53.248;10.336;2022-12-07T10:38:27;4.03;;;1.53;;
7027;SDS011;3555;53.248;10.336;2022-12-07T10:41:06;5.37;;;1.53;;
7027;SDS011;3555;53.248;10.336;2022-12-07T10:43:35;3.43;;;1.07;;
7027;SDS011;3555;53.248;10.336;2022-12-07T10:49:25;2.60;;;1.23;;
7027;SDS011;3555;53.248;10.336;2022-12-07T10:52:35;3.10;;;1.03;;
7027;SDS011;3555;53.248;10.336;2022-12-07T10:55:16;3.47;;;1.03;;
7027;SDS011;3555;53.248;10.336;2022-12-07T10:57:50;2.83;;;1.03;;
7027;SDS011;3555;53.248;10.336;2022-12-07T11:00:28;3.23;;;0.93;;
7027;SDS011;3555;53.248;10.336;2022-12-07T11:03:05;4.30;;;1.00;;
7027;SDS011;3555;53.248;10.336;2022-12-07T11:05:49;6.17;;;1.10;;
7027;SDS011;3555;53.248;10.336;2022-12-07T11:08:24;2.63;;;0.93;;
7027;SDS011;3555;53.248;10.336;2022-12-07T11:11:05;1.63;;;0.90;;
7027;SDS011;3555;53.248;10.336;2022-12-07T11:13:37;2.93;;;1.00;;
7027;SDS011;3555;53.248;10.336;2022-12-07T11:16:18;2.10;;;0.90;;
7027;SDS011;3555;53.248;10.336;2022-12-07T11:21:56;3.37;;;1.07;;
7027;SDS011;3555;53.248;10.336;2022-12-07T11:24:26;2.47;;;1.27;;
7027;SDS011;3555;53.248;10.336;2022-12-07T11:27:05;3.37;;;1.30;;
7027;SDS011;3555;53.248;10.336;2022-12-07T11:29:47;2.80;;;1.20;;
7027;SDS011;3555;53.248;10.336;2022-12-07T11:32:25;4.47;;;1.20;;
7027;SDS011;3555;53.248;10.336;2022-12-07T11:35:08;2.57;;;1.30;;
7027;SDS011;3555;53.248;10.336;2022-12-07T11:37:42;4.00;;;1.10;;
7027;SDS011;3555;53.248;10.336;2022-12-07T11:40:14;2.63;;;1.10;;
7027;SDS011;3555;53.248;10.336;2022-12-07T11:42:48;3.13;;;1.30;;
7027;SDS011;3555;53.248;10.336;2022-12-07T11:45:19;2.30;;;1.23;;
7027;SDS011;3555;53.248;10.336;2022-12-07T11:47:51;5.77;;;1.40;;
7027;SDS011;3555;53.248;10.336;2022-12-07T11:50:26;3.90;;;1.20;;
7027;SDS011;3555;53.248;10.336;2022-12-07T11:52:59;3.93;;;1.50;;
7027;SDS011;3555;53.248;10.336;2022-12-07T11:55:30;7.30;;;1.23;;
7027;SDS011;3555;53.248;10.336;2022-12-07T11:58:09;1.60;;;1.10;;
7027;SDS011;3555;53.248;10.336;2022-12-07T12:00:49;10.83;;;1.83;;
7027;SDS011;3555;53.248;10.336;2022-12-07T12:03:21;4.07;;;1.43;;
7027;SDS011;3555;53.248;10.336;2022-12-07T12:05:55;4.80;;;1.47;;
7027;SDS011;3555;53.248;10.336;2022-12-07T12:08:23;4.47;;;1.40;;
7027;SDS011;3555;53.248;10.336;2022-12-07T12:10:55;3.07;;;1.43;;
7027;SDS011;3555;53.248;10.336;2022-12-07T12:13:34;7.53;;;1.63;;
7027;SDS011;3555;53.248;10.336;2022-12-07T12:16:34;3.97;;;1.60;;
7027;SDS011;3555;53.248;10.336;2022-12-07T12:19:25;5.67;;;1.57;;
7027;SDS011;3555;53.248;10.336;2022-12-07T12:22:00;7.20;;;1.83;;
7027;SDS011;3555;53.248;10.336;2022-12-07T12:24:36;7.97;;;1.80;;
7027;SDS011;3555;53.248;10.336;2022-12-07T12:27:07;5.47;;;1.57;;
7027;SDS011;3555;53.248;10.336;2022-12-07T12:29:37;4.13;;;1.50;;
7027;SDS011;3555;53.248;10.336;2022-12-07T12:32:17;3.07;;;1.20;;
7027;SDS011;3555;53.248;10.336;2022-12-07T12:35:02;3.33;;;1.70;;
7027;SDS011;3555;53.248;10.336;2022-12-07T12:37:45;5.37;;;1.37;;
7027;SDS011;3555;53.248;10.336;2022-12-07T12:55:16;6.30;;;1.50;;
7027;SDS011;3555;53.248;10.336;2022-12-07T13:04:17;4.07;;;2.07;;
7027;SDS011;3555;53.248;10.336;2022-12-07T13:06:50;6.67;;;1.40;;
7027;SDS011;3555;53.248;10.336;2022-12-07T13:09:19;7.13;;;1.53;;
7027;SDS011;3555;53.248;10.336;2022-12-07T13:11:54;3.60;;;1.40;;
7027;SDS011;3555;53.248;10.336;2022-12-07T13:14:51;2.43;;;1.20;;
7027;SDS011;3555;53.248;10.336;2022-12-07T13:23:21;3.47;;;1.90;;
7027;SDS011;3555;53.248;10.336;2022-12-07T13:25:51;5.97;;;1.87;;
7027;SDS011;3555;53.248;10.336;2022-12-07T13:28:26;4.77;;;1.60;;
7027;SDS011;3555;53.248;10.336;2022-12-07T13:31:04;4.40;;;1.50;;
7027;SDS011;3555;53.248;10.336;2022-12-07T13:33:43;3.67;;;1.50;;
7027;SDS011;3555;53.248;10.336;2022-12-07T13:36:14;2.17;;;1.30;;
7027;SDS011;3555;53.248;10.336;2022-12-07T13:38:48;6.37;;;1.43;;
7027;SDS011;3555;53.248;10.336;2022-12-07T13:41:17;5.20;;;2.30;;
7027;SDS011;3555;53.248;10.336;2022-12-07T13:43:48;7.47;;;1.67;;
7027;SDS011;3555;53.248;10.336;2022-12-07T13:46:17;4.70;;;1.57;;
7027;SDS011;3555;53.248;10.336;2022-12-07T13:48:46;5.13;;;1.53;;
7027;SDS011;3555;53.248;10.336;2022-12-07T13:51:17;3.37;;;1.40;;
7027;SDS011;3555;53.248;10.336;2022-12-07T13:53:46;4.73;;;1.50;;
7027;SDS011;3555;53.248;10.336;2022-12-07T13:56:14;3.50;;;1.40;;
7027;SDS011;3555;53.248;10.336;2022-12-07T13:58:41;7.77;;;1.67;;
7027;SDS011;3555;53.248;10.336;2022-12-07T14:01:11;5.97;;;1.37;;
7027;SDS011;3555;53.248;10.336;2022-12-07T14:03:38;4.03;;;1.13;;
7027;SDS011;3555;53.248;10.336;2022-12-07T14:06:10;2.77;;;1.37;;
7027;SDS011;3555;53.248;10.336;2022-12-07T14:08:41;5.23;;;1.50;;
7027;SDS011;3555;53.248;10.336;2022-12-07T14:11:09;5.63;;;1.60;;
7027;SDS011;3555;53.248;10.336;2022-12-07T14:13:44;3.30;;;1.33;;
7027;SDS011;3555;53.248;10.336;2022-12-07T14:16:21;2.90;;;1.40;;
7027;SDS011;3555;53.248;10.336;2022-12-07T14:18:52;4.90;;;1.27;;
7027;SDS011;3555;53.248;10.336;2022-12-07T14:21:20;4.43;;;1.40;;
7027;SDS011;3555;53.248;10.336;2022-12-07T14:24:02;1.93;;;1.10;;
7027;SDS011;3555;53.248;10.336;2022-12-07T14:26:39;3.40;;;1.20;;
7027;SDS011;3555;53.248;10.336;2022-12-07T14:29:18;1.90;;;1.13;;
7027;SDS011;3555;53.248;10.336;2022-12-07T14:31:49;5.17;;;1.10;;
7027;SDS011;3555;53.248;10.336;2022-12-07T14:34:19;2.60;;;1.23;;
7027;SDS011;3555;53.248;10.336;2022-12-07T14:36:46;2.90;;;1.37;;
7027;SDS011;3555;53.248;10.336;2022-12-07T14:39:13;5.17;;;1.57;;
7027;SDS011;3555;53.248;10.336;2022-12-07T14:41:40;4.17;;;1.20;;
7027;SDS011;3555;53.248;10.336;2022-12-07T14:44:19;2.97;;;1.10;;
7027;SDS011;3555;53.248;10.336;2022-12-07T14:46:49;5.03;;;1.33;;
7027;SDS011;3555;53.248;10.336;2022-12-07T14:49:16;4.83;;;1.10;;
7027;SDS011;3555;53.248;10.336;2022-12-07T14:51:44;4.57;;;1.30;;
7027;SDS011;3555;53.248;10.336;2022-12-07T14:54:14;2.90;;;1.00;;
7027;SDS011;3555;53.248;10.336;2022-12-07T14:56:44;2.97;;;1.27;;
7027;SDS011;3555;53.248;10.336;2022-12-07T14:59:14;2.60;;;1.10;;
7027;SDS011;3555;53.248;10.336;2022-12-07T15:01:41;5.37;;;1.33;;
7027;SDS011;3555;53.248;10.336;2022-12-07T15:04:10;7.23;;;1.30;;
7027;SDS011;3555;53.248;10.336;2022-12-07T15:06:37;3.77;;;1.10;;
7027;SDS011;3555;53.248;10.336;2022-12-07T15:09:04;2.90;;;1.10;;
7027;SDS011;3555;53.248;10.336;2022-12-07T15:11:31;5.90;;;1.43;;
7027;SDS011;3555;53.248;10.336;2022-12-07T15:13:57;3.30;;;1.20;;
7027;SDS011;3555;53.248;10.336;2022-12-07T15:16:33;7.10;;;1.57;;
7027;SDS011;3555;53.248;10.336;2022-12-07T15:19:01;4.53;;;1.73;;
7027;SDS011;3555;53.248;10.336;2022-12-07T15:21:30;3.53;;;1.20;;
7027;SDS011;3555;53.248;10.336;2022-12-07T15:23:56;3.17;;;1.20;;
7027;SDS011;3555;53.248;10.336;2022-12-07T15:26:23;2.63;;;1.30;;
7027;SDS011;3555;53.248;10.336;2022-12-07T15:28:52;2.67;;;1.17;;
7027;SDS011;3555;53.248;10.336;2022-12-07T15:31:19;2.13;;;1.03;;
7027;SDS011;3555;53.248;10.336;2022-12-07T15:33:46;4.17;;;1.17;;
7027;SDS011;3555;53.248;10.336;2022-12-07T15:36:15;3.00;;;1.37;;
7027;SDS011;3555;53.248;10.336;2022-12-07T15:38:47;3.30;;;1.30;;
7027;SDS011;3555;53.248;10.336;2022-12-07T15:41:14;5.00;;;1.77;;
7027;SDS011;3555;53.248;10.336;2022-12-07T15:43:42;2.37;;;1.10;;
7027;SDS011;3555;53.248;10.336;2022-12-07T15:46:29;3.47;;;1.03;;
7027;SDS011;3555;53.248;10.336;2022-12-07T15:48:56;5.00;;;1.20;;
7027;SDS011;3555;53.248;10.336;2022-12-07T15:51:23;2.87;;;1.00;;
7027;SDS011;3555;53.248;10.336;2022-12-07T15:53:52;3.43;;;1.20;;